sensor_id;sensor_type;location;lat;lon;timestamp;pressure;altitude;pressure_sealevel;temperature;humidity
69796;BME280;57073;45.650;9.612;2022-10-19T00:00:12;99980.91;;;17.50;65.38
69796;BME280;57073;45.650;9.612;2022-10-19T00:02:12;99971.69;;;17.51;65.80
69796;BME280;57073;45.650;9.612;2022-10-19T00:04:13;99982.63;;;17.39;65.57
69796;BME280;57073;45.650;9.612;2022-10-19T00:06:17;99980.06;;;17.32;65.96
69796;BME280;57073;45.650;9.612;2022-10-19T00:08:17;99974.53;;;17.27;66.44
69796;BME280;57073;45.650;9.612;2022-10-19T00:10:18;99977.72;;;17.24;66.57
69796;BME280;57073;45.650;9.612;2022-10-19T00:12:18;99973.88;;;17.20;66.75
69796;BME280;57073;45.650;9.612;2022-10-19T00:14:21;99977.56;;;17.14;66.43
69796;BME280;57073;45.650;9.612;2022-10-19T00:16:24;99979.47;;;17.13;66.59
69796;BME280;57073;45.650;9.612;2022-10-19T00:18:24;99970.47;;;17.13;66.81
69796;BME280;57073;45.650;9.612;2022-10-19T00:20:25;99973.94;;;17.08;66.71
69796;BME280;57073;45.650;9.612;2022-10-19T00:22:25;99961.09;;;17.03;66.61
69796;BME280;57073;45.650;9.612;2022-10-19T00:24:26;99973.03;;;17.02;66.80
69796;BME280;57073;45.650;9.612;2022-10-19T00:26:26;99969.47;;;17.02;66.98
69796;BME280;57073;45.650;9.612;2022-10-19T00:28:27;99959.13;;;16.99;66.67
69796;BME280;57073;45.650;9.612;2022-10-19T00:30:27;99959.94;;;16.99;66.93
69796;BME280;57073;45.650;9.612;2022-10-19T00:32:28;99963.38;;;16.95;66.84
69796;BME280;57073;45.650;9.612;2022-10-19T00:34:28;99958.22;;;16.93;67.17
69796;BME280;57073;45.650;9.612;2022-10-19T00:36:31;99964.69;;;16.92;66.94
69796;BME280;57073;45.650;9.612;2022-10-19T00:38:33;99954.84;;;16.86;67.13
69796;BME280;57073;45.650;9.612;2022-10-19T00:40:37;99960.13;;;16.81;67.19
69796;BME280;57073;45.650;9.612;2022-10-19T00:42:38;99959.03;;;16.82;67.39
69796;BME280;57073;45.650;9.612;2022-10-19T00:46:44;99957.13;;;16.94;66.54
69796;BME280;57073;45.650;9.612;2022-10-19T00:48:45;99963.53;;;16.88;66.70
69796;BME280;57073;45.650;9.612;2022-10-19T00:50:46;99956.56;;;16.92;66.47
69796;BME280;57073;45.650;9.612;2022-10-19T00:52:48;99956.44;;;16.99;66.25
69796;BME280;57073;45.650;9.612;2022-10-19T00:54:49;99939.63;;;16.85;66.33
69796;BME280;57073;45.650;9.612;2022-10-19T00:56:52;99951.03;;;16.87;66.34
69796;BME280;57073;45.650;9.612;2022-10-19T00:58:54;99946.41;;;16.99;65.87
69796;BME280;57073;45.650;9.612;2022-10-19T01:00:54;99950.56;;;16.90;66.34
69796;BME280;57073;45.650;9.612;2022-10-19T01:02:56;99953.38;;;16.95;65.70
69796;BME280;57073;45.650;9.612;2022-10-19T01:04:58;99951.63;;;16.89;66.30
69796;BME280;57073;45.650;9.612;2022-10-19T01:06:59;99947.03;;;16.78;66.69
69796;BME280;57073;45.650;9.612;2022-10-19T01:09:01;99943.28;;;16.79;66.63
69796;BME280;57073;45.650;9.612;2022-10-19T01:14:01;99946.81;;;16.79;66.56
69796;BME280;57073;45.650;9.612;2022-10-19T01:16:25;99939.97;;;16.77;66.80
69796;BME280;57073;45.650;9.612;2022-10-19T01:21:07;99940.38;;;16.68;66.56
69796;BME280;57073;45.650;9.612;2022-10-19T01:28:29;99932.38;;;16.62;67.08
69796;BME280;57073;45.650;9.612;2022-10-19T01:37:09;99912.53;;;16.44;67.25
69796;BME280;57073;45.650;9.612;2022-10-19T01:39:29;99928.16;;;16.54;67.13
69796;BME280;57073;45.650;9.612;2022-10-19T01:46:29;99915.31;;;16.49;67.16
69796;BME280;57073;45.650;9.612;2022-10-19T01:48:34;99909.31;;;16.47;67.36
69796;BME280;57073;45.650;9.612;2022-10-19T01:50:50;99912.03;;;16.47;67.16
69796;BME280;57073;45.650;9.612;2022-10-19T01:52:54;99909.84;;;16.44;67.75
69796;BME280;57073;45.650;9.612;2022-10-19T01:55:00;99899.22;;;16.43;67.65
69796;BME280;57073;45.650;9.612;2022-10-19T01:57:04;99903.41;;;16.62;67.30
69796;BME280;57073;45.650;9.612;2022-10-19T01:59:07;99902.22;;;16.58;67.38
69796;BME280;57073;45.650;9.612;2022-10-19T02:01:11;99893.56;;;16.44;67.29
69796;BME280;57073;45.650;9.612;2022-10-19T02:03:13;99898.16;;;16.44;67.62
69796;BME280;57073;45.650;9.612;2022-10-19T02:05:16;99904.31;;;16.39;67.25
69796;BME280;57073;45.650;9.612;2022-10-19T02:07:19;99902.66;;;16.38;67.56
69796;BME280;57073;45.650;9.612;2022-10-19T02:09:20;99896.88;;;16.35;68.18
69796;BME280;57073;45.650;9.612;2022-10-19T02:11:22;99896.88;;;16.35;67.85
69796;BME280;57073;45.650;9.612;2022-10-19T02:13:23;99892.91;;;16.37;67.68
69796;BME280;57073;45.650;9.612;2022-10-19T02:15:26;99897.38;;;16.32;67.56
69796;BME280;57073;45.650;9.612;2022-10-19T02:17:31;99889.75;;;16.28;67.78
69796;BME280;57073;45.650;9.612;2022-10-19T02:19:32;99891.63;;;16.28;67.79
69796;BME280;57073;45.650;9.612;2022-10-19T02:21:33;99889.91;;;16.39;67.66
69796;BME280;57073;45.650;9.612;2022-10-19T02:23:34;99889.09;;;16.38;67.87
69796;BME280;57073;45.650;9.612;2022-10-19T02:25:34;99880.53;;;16.29;67.90
69796;BME280;57073;45.650;9.612;2022-10-19T02:27:37;99875.63;;;16.26;67.98
69796;BME280;57073;45.650;9.612;2022-10-19T02:29:39;99872.31;;;16.24;67.85
69796;BME280;57073;45.650;9.612;2022-10-19T02:31:39;99872.22;;;16.19;67.98
69796;BME280;57073;45.650;9.612;2022-10-19T02:33:40;99876.72;;;16.14;68.13
69796;BME280;57073;45.650;9.612;2022-10-19T02:35:40;99882.56;;;16.22;68.00
69796;BME280;57073;45.650;9.612;2022-10-19T02:37:41;99877.47;;;16.26;68.27
69796;BME280;57073;45.650;9.612;2022-10-19T02:39:42;99874.09;;;16.19;68.23
69796;BME280;57073;45.650;9.612;2022-10-19T02:41:54;99871.66;;;16.17;68.26
69796;BME280;57073;45.650;9.612;2022-10-19T02:44:01;99875.88;;;16.13;68.56
69796;BME280;57073;45.650;9.612;2022-10-19T02:48:23;99869.28;;;16.09;68.37
69796;BME280;57073;45.650;9.612;2022-10-19T02:50:25;99870.94;;;16.10;68.27
69796;BME280;57073;45.650;9.612;2022-10-19T02:52:25;99869.88;;;16.11;68.05
69796;BME280;57073;45.650;9.612;2022-10-19T02:54:26;99865.03;;;16.13;67.75
69796;BME280;57073;45.650;9.612;2022-10-19T02:56:27;99858.59;;;16.02;68.24
69796;BME280;57073;45.650;9.612;2022-10-19T02:58:27;99862.72;;;16.05;68.22
69796;BME280;57073;45.650;9.612;2022-10-19T03:00:28;99864.34;;;16.06;68.41
69796;BME280;57073;45.650;9.612;2022-10-19T03:02:28;99868.94;;;16.05;68.20
69796;BME280;57073;45.650;9.612;2022-10-19T03:04:28;99866.25;;;16.05;67.96
69796;BME280;57073;45.650;9.612;2022-10-19T03:06:29;99864.28;;;16.01;68.07
69796;BME280;57073;45.650;9.612;2022-10-19T03:08:29;99859.50;;;16.08;67.65
69796;BME280;57073;45.650;9.612;2022-10-19T03:10:29;99855.19;;;16.07;67.47
69796;BME280;57073;45.650;9.612;2022-10-19T03:12:30;99863.75;;;16.16;67.10
69796;BME280;57073;45.650;9.612;2022-10-19T03:14:30;99851.16;;;16.09;67.03
69796;BME280;57073;45.650;9.612;2022-10-19T03:16:30;99861.16;;;16.09;67.36
69796;BME280;57073;45.650;9.612;2022-10-19T03:18:31;99865.38;;;16.17;66.67
69796;BME280;57073;45.650;9.612;2022-10-19T03:20:31;99868.81;;;16.12;66.88
69796;BME280;57073;45.650;9.612;2022-10-19T03:22:31;99859.97;;;16.17;66.73
69796;BME280;57073;45.650;9.612;2022-10-19T03:24:32;99863.75;;;16.16;67.13
69796;BME280;57073;45.650;9.612;2022-10-19T03:26:32;99863.19;;;16.02;67.40
69796;BME280;57073;45.650;9.612;2022-10-19T03:28:33;99848.72;;;15.96;67.01
69796;BME280;57073;45.650;9.612;2022-10-19T03:30:33;99860.72;;;16.00;67.48
69796;BME280;57073;45.650;9.612;2022-10-19T03:32:34;99864.75;;;15.98;67.29
69796;BME280;57073;45.650;9.612;2022-10-19T03:34:34;99867.34;;;15.93;67.51
69796;BME280;57073;45.650;9.612;2022-10-19T03:36:37;99864.03;;;15.90;67.62
69796;BME280;57073;45.650;9.612;2022-10-19T03:38:38;99866.16;;;15.88;67.45
69796;BME280;57073;45.650;9.612;2022-10-19T03:40:38;99866.63;;;15.85;67.52
69796;BME280;57073;45.650;9.612;2022-10-19T03:42:38;99852.53;;;15.83;67.53
69796;BME280;57073;45.650;9.612;2022-10-19T03:44:39;99860.53;;;15.90;67.28
69796;BME280;57073;45.650;9.612;2022-10-19T03:46:39;99855.81;;;15.85;66.97
69796;BME280;57073;45.650;9.612;2022-10-19T03:48:40;99857.22;;;15.88;67.02
69796;BME280;57073;45.650;9.612;2022-10-19T03:50:40;99864.38;;;15.94;67.03
69796;BME280;57073;45.650;9.612;2022-10-19T03:52:41;99859.44;;;16.03;66.35
69796;BME280;57073;45.650;9.612;2022-10-19T03:54:42;99854.84;;;15.91;66.86
69796;BME280;57073;45.650;9.612;2022-10-19T03:56:43;99859.34;;;15.86;67.26
69796;BME280;57073;45.650;9.612;2022-10-19T03:58:45;99859.56;;;15.84;66.87
69796;BME280;57073;45.650;9.612;2022-10-19T04:00:45;99857.69;;;15.85;67.16
69796;BME280;57073;45.650;9.612;2022-10-19T04:02:46;99858.16;;;15.82;67.25
69796;BME280;57073;45.650;9.612;2022-10-19T04:04:46;99864.03;;;15.90;66.58
69796;BME280;57073;45.650;9.612;2022-10-19T04:06:48;99870.63;;;15.95;66.44
69796;BME280;57073;45.650;9.612;2022-10-19T04:08:49;99861.56;;;16.01;66.26
69796;BME280;57073;45.650;9.612;2022-10-19T04:10:49;99866.53;;;15.80;66.35
69796;BME280;57073;45.650;9.612;2022-10-19T04:12:49;99863.69;;;15.75;67.03
69796;BME280;57073;45.650;9.612;2022-10-19T04:14:50;99866.41;;;15.75;66.96
69796;BME280;57073;45.650;9.612;2022-10-19T04:16:51;99874.75;;;15.74;67.17
69796;BME280;57073;45.650;9.612;2022-10-19T04:18:52;99868.72;;;15.71;66.96
69796;BME280;57073;45.650;9.612;2022-10-19T04:21:00;99864.31;;;15.77;67.07
69796;BME280;57073;45.650;9.612;2022-10-19T04:23:01;99872.28;;;15.84;66.25
69796;BME280;57073;45.650;9.612;2022-10-19T04:25:01;99875.13;;;15.77;66.69
69796;BME280;57073;45.650;9.612;2022-10-19T04:27:01;99863.31;;;15.71;66.75
69796;BME280;57073;45.650;9.612;2022-10-19T04:29:02;99877.84;;;15.77;66.76
69796;BME280;57073;45.650;9.612;2022-10-19T04:31:03;99874.06;;;15.78;66.64
69796;BME280;57073;45.650;9.612;2022-10-19T04:33:04;99869.94;;;15.76;66.62
69796;BME280;57073;45.650;9.612;2022-10-19T04:35:04;99872.66;;;15.76;66.29
69796;BME280;57073;45.650;9.612;2022-10-19T04:37:05;99869.47;;;15.79;66.44
69796;BME280;57073;45.650;9.612;2022-10-19T04:39:05;99870.03;;;15.69;66.30
69796;BME280;57073;45.650;9.612;2022-10-19T04:41:17;99869.69;;;15.65;67.00
69796;BME280;57073;45.650;9.612;2022-10-19T04:43:18;99864.16;;;15.60;67.03
69796;BME280;57073;45.650;9.612;2022-10-19T04:45:18;99861.69;;;15.59;66.65
69796;BME280;57073;45.650;9.612;2022-10-19T04:47:18;99858.28;;;15.51;66.76
69796;BME280;57073;45.650;9.612;2022-10-19T04:49:19;99859.47;;;15.56;66.84
69796;BME280;57073;45.650;9.612;2022-10-19T04:51:21;99868.28;;;15.51;67.06
69796;BME280;57073;45.650;9.612;2022-10-19T04:53:22;99860.41;;;15.49;67.23
69796;BME280;57073;45.650;9.612;2022-10-19T04:55:23;99865.69;;;15.56;67.01
69796;BME280;57073;45.650;9.612;2022-10-19T04:57:24;99861.69;;;15.47;67.18
69796;BME280;57073;45.650;9.612;2022-10-19T04:59:24;99868.50;;;15.49;66.98
69796;BME280;57073;45.650;9.612;2022-10-19T05:01:26;99859.69;;;15.66;66.11
69796;BME280;57073;45.650;9.612;2022-10-19T05:03:27;99851.72;;;15.59;66.46
69796;BME280;57073;45.650;9.612;2022-10-19T05:05:27;99861.91;;;15.57;66.51
69796;BME280;57073;45.650;9.612;2022-10-19T05:07:27;99856.16;;;15.53;66.40
69796;BME280;57073;45.650;9.612;2022-10-19T05:09:28;99854.97;;;15.49;67.14
69796;BME280;57073;45.650;9.612;2022-10-19T05:11:28;99861.47;;;15.48;66.99
69796;BME280;57073;45.650;9.612;2022-10-19T05:13:30;99860.97;;;15.51;66.62
69796;BME280;57073;45.650;9.612;2022-10-19T05:15:31;99855.22;;;15.60;66.51
69796;BME280;57073;45.650;9.612;2022-10-19T05:17:32;99849.13;;;15.52;66.81
69796;BME280;57073;45.650;9.612;2022-10-19T05:19:32;99849.22;;;15.58;66.79
69796;BME280;57073;45.650;9.612;2022-10-19T05:21:32;99850.28;;;15.57;66.84
69796;BME280;57073;45.650;9.612;2022-10-19T05:23:33;99836.78;;;15.45;66.86
69796;BME280;57073;45.650;9.612;2022-10-19T05:25:34;99846.75;;;15.56;66.57
69796;BME280;57073;45.650;9.612;2022-10-19T05:27:34;99836.88;;;15.50;66.74
69796;BME280;57073;45.650;9.612;2022-10-19T05:29:34;99844.53;;;15.65;66.29
69796;BME280;57073;45.650;9.612;2022-10-19T05:31:35;99828.75;;;15.62;65.98
69796;BME280;57073;45.650;9.612;2022-10-19T05:33:36;99837.81;;;15.67;66.28
69796;BME280;57073;45.650;9.612;2022-10-19T05:35:36;99834.53;;;15.77;65.79
69796;BME280;57073;45.650;9.612;2022-10-19T05:37:36;99832.50;;;15.84;65.66
69796;BME280;57073;45.650;9.612;2022-10-19T05:39:37;99827.31;;;15.71;66.13
69796;BME280;57073;45.650;9.612;2022-10-19T05:41:37;99829.22;;;15.70;65.86
69796;BME280;57073;45.650;9.612;2022-10-19T05:43:39;99833.69;;;15.88;65.31
69796;BME280;57073;45.650;9.612;2022-10-19T05:45:39;99830.41;;;15.75;65.38
69796;BME280;57073;45.650;9.612;2022-10-19T05:47:39;99835.69;;;15.69;65.92
69796;BME280;57073;45.650;9.612;2022-10-19T05:49:40;99841.31;;;15.68;65.86
69796;BME280;57073;45.650;9.612;2022-10-19T05:51:40;99843.44;;;15.66;66.18
69796;BME280;57073;45.650;9.612;2022-10-19T05:53:41;99843.69;;;15.64;65.85
69796;BME280;57073;45.650;9.612;2022-10-19T05:55:42;99845.09;;;15.67;66.17
69796;BME280;57073;45.650;9.612;2022-10-19T05:57:43;99846.28;;;15.71;66.05
69796;BME280;57073;45.650;9.612;2022-10-19T05:59:43;99842.16;;;15.68;65.70
69796;BME280;57073;45.650;9.612;2022-10-19T06:01:44;99847.47;;;15.75;65.86
69796;BME280;57073;45.650;9.612;2022-10-19T06:03:46;99853.22;;;15.79;65.76
69796;BME280;57073;45.650;9.612;2022-10-19T06:05:48;99853.56;;;15.82;65.99
69796;BME280;57073;45.650;9.612;2022-10-19T06:07:48;99853.22;;;15.90;65.25
69796;BME280;57073;45.650;9.612;2022-10-19T06:09:48;99861.22;;;15.97;65.03
69796;BME280;57073;45.650;9.612;2022-10-19T06:11:49;99851.78;;;16.00;65.06
69796;BME280;57073;45.650;9.612;2022-10-19T06:13:50;99857.31;;;16.05;65.30
69796;BME280;57073;45.650;9.612;2022-10-19T06:15:52;99840.72;;;16.01;65.02
69796;BME280;57073;45.650;9.612;2022-10-19T06:17:52;99854.38;;;16.06;64.92
69796;BME280;57073;45.650;9.612;2022-10-19T06:19:53;99848.38;;;16.04;65.08
69796;BME280;57073;45.650;9.612;2022-10-19T06:21:53;99851.38;;;16.08;64.82
69796;BME280;57073;45.650;9.612;2022-10-19T06:23:56;99849.41;;;16.03;65.74
69796;BME280;57073;45.650;9.612;2022-10-19T06:25:57;99854.38;;;16.06;65.44
69796;BME280;57073;45.650;9.612;2022-10-19T06:27:58;99846.13;;;16.01;64.91
69796;BME280;57073;45.650;9.612;2022-10-19T06:29:59;99864.56;;;16.16;64.80
69796;BME280;57073;45.650;9.612;2022-10-19T06:31:59;99864.09;;;16.19;64.99
69796;BME280;57073;45.650;9.612;2022-10-19T06:34:00;99859.13;;;16.28;64.79
69796;BME280;57073;45.650;9.612;2022-10-19T06:36:21;99868.75;;;16.36;64.16
69796;BME280;57073;45.650;9.612;2022-10-19T06:38:21;99860.03;;;16.34;64.31
69796;BME280;57073;45.650;9.612;2022-10-19T06:40:23;99871.06;;;16.44;63.75
69796;BME280;57073;45.650;9.612;2022-10-19T06:42:23;99863.03;;;16.49;63.94
69796;BME280;57073;45.650;9.612;2022-10-19T06:44:24;99871.38;;;16.59;63.25
69796;BME280;57073;45.650;9.612;2022-10-19T06:46:25;99867.09;;;16.63;62.80
69796;BME280;57073;45.650;9.612;2022-10-19T06:48:25;99867.44;;;16.67;63.10
69796;BME280;57073;45.650;9.612;2022-10-19T06:50:26;99870.47;;;16.71;62.63
69796;BME280;57073;45.650;9.612;2022-10-19T06:52:26;99870.81;;;16.74;62.11
69796;BME280;57073;45.650;9.612;2022-10-19T06:54:26;99876.78;;;16.88;62.64
69796;BME280;57073;45.650;9.612;2022-10-19T06:56:27;99867.75;;;16.99;62.05
69796;BME280;57073;45.650;9.612;2022-10-19T06:58:28;99872.84;;;17.13;61.64
69796;BME280;57073;45.650;9.612;2022-10-19T07:00:29;99873.28;;;17.21;61.48
69796;BME280;57073;45.650;9.612;2022-10-19T07:02:30;99879.13;;;17.30;61.14
69796;BME280;57073;45.650;9.612;2022-10-19T07:04:31;99871.97;;;17.41;61.05
69796;BME280;57073;45.650;9.612;2022-10-19T07:06:31;99884.69;;;17.57;60.88
69796;BME280;57073;45.650;9.612;2022-10-19T07:08:32;99868.16;;;17.59;60.26
69796;BME280;57073;45.650;9.612;2022-10-19T07:10:35;99880.66;;;17.82;59.19
69796;BME280;57073;45.650;9.612;2022-10-19T07:12:35;99877.97;;;17.99;60.13
69796;BME280;57073;45.650;9.612;2022-10-19T07:14:36;99889.72;;;18.05;59.61
69796;BME280;57073;45.650;9.612;2022-10-19T07:16:38;99891.47;;;18.16;59.72
69796;BME280;57073;45.650;9.612;2022-10-19T07:18:39;99890.34;;;18.34;60.03
69796;BME280;57073;45.650;9.612;2022-10-19T07:20:40;99888.13;;;18.31;58.79
69796;BME280;57073;45.650;9.612;2022-10-19T07:22:41;99893.94;;;18.39;58.40
69796;BME280;57073;45.650;9.612;2022-10-19T07:24:41;99895.19;;;18.54;58.76
69796;BME280;57073;45.650;9.612;2022-10-19T07:26:41;99899.69;;;18.70;59.26
69796;BME280;57073;45.650;9.612;2022-10-19T07:28:44;99898.88;;;18.70;57.84
69796;BME280;57073;45.650;9.612;2022-10-19T07:30:45;99906.25;;;18.96;58.37
69796;BME280;57073;45.650;9.612;2022-10-19T07:32:45;99899.31;;;19.11;57.86
69796;BME280;57073;45.650;9.612;2022-10-19T07:34:46;99907.56;;;19.21;57.54
69796;BME280;57073;45.650;9.612;2022-10-19T07:36:47;99900.56;;;19.30;57.49
69796;BME280;57073;45.650;9.612;2022-10-19T07:38:47;99900.72;;;19.51;56.88
69796;BME280;57073;45.650;9.612;2022-10-19T07:40:47;99908.44;;;19.64;56.77
69796;BME280;57073;45.650;9.612;2022-10-19T07:42:48;99902.53;;;19.78;56.40
69796;BME280;57073;45.650;9.612;2022-10-19T07:44:48;99905.63;;;19.91;55.64
69796;BME280;57073;45.650;9.612;2022-10-19T07:46:48;99910.31;;;20.01;55.76
69796;BME280;57073;45.650;9.612;2022-10-19T07:48:49;99913.09;;;20.11;55.30
69796;BME280;57073;45.650;9.612;2022-10-19T07:50:50;99917.50;;;20.23;56.23
69796;BME280;57073;45.650;9.612;2022-10-19T07:52:51;99911.53;;;20.26;54.48
69796;BME280;57073;45.650;9.612;2022-10-19T07:54:51;99920.81;;;20.35;54.83
69796;BME280;57073;45.650;9.612;2022-10-19T07:56:52;99915.13;;;20.42;54.83
69796;BME280;57073;45.650;9.612;2022-10-19T07:58:54;99918.72;;;20.53;55.06
69796;BME280;57073;45.650;9.612;2022-10-19T08:00:59;99914.63;;;20.55;55.07
69796;BME280;57073;45.650;9.612;2022-10-19T08:03:00;99912.66;;;20.40;54.22
69796;BME280;57073;45.650;9.612;2022-10-19T08:05:00;99914.81;;;20.33;53.67
69796;BME280;57073;45.650;9.612;2022-10-19T08:07:00;99912.44;;;20.47;54.98
69796;BME280;57073;45.650;9.612;2022-10-19T08:09:01;99918.16;;;20.56;54.72
69796;BME280;57073;45.650;9.612;2022-10-19T08:11:11;99916.88;;;20.63;53.82
69796;BME280;57073;45.650;9.612;2022-10-19T08:13:11;99915.72;;;20.59;53.84
69796;BME280;57073;45.650;9.612;2022-10-19T08:15:12;99911.97;;;20.65;54.49
69796;BME280;57073;45.650;9.612;2022-10-19T08:17:12;99911.16;;;20.75;53.67
69796;BME280;57073;45.650;9.612;2022-10-19T08:19:16;99908.47;;;20.85;53.89
69796;BME280;57073;45.650;9.612;2022-10-19T08:21:16;99912.25;;;20.79;52.96
69796;BME280;57073;45.650;9.612;2022-10-19T08:23:17;99910.84;;;20.66;53.63
69796;BME280;57073;45.650;9.612;2022-10-19T08:25:17;99909.53;;;20.79;54.02
69796;BME280;57073;45.650;9.612;2022-10-19T08:27:18;99907.38;;;20.92;53.39
69796;BME280;57073;45.650;9.612;2022-10-19T08:29:19;99905.75;;;20.96;53.12
69796;BME280;57073;45.650;9.612;2022-10-19T08:31:21;99906.00;;;21.04;52.71
69796;BME280;57073;45.650;9.612;2022-10-19T08:33:21;99910.13;;;21.17;52.19
69796;BME280;57073;45.650;9.612;2022-10-19T08:35:22;99903.59;;;21.23;52.64
69796;BME280;57073;45.650;9.612;2022-10-19T08:37:22;99899.75;;;21.19;51.80
69796;BME280;57073;45.650;9.612;2022-10-19T08:39:23;99906.03;;;21.20;51.94
69796;BME280;57073;45.650;9.612;2022-10-19T08:43:55;99899.75;;;21.14;51.56
69796;BME280;57073;45.650;9.612;2022-10-19T08:48:27;99891.56;;;21.24;52.00
69796;BME280;57073;45.650;9.612;2022-10-19T08:50:35;99900.56;;;21.40;52.09
69796;BME280;57073;45.650;9.612;2022-10-19T08:52:37;99888.88;;;21.45;51.74
69796;BME280;57073;45.650;9.612;2022-10-19T08:54:59;99895.41;;;21.59;52.78
69796;BME280;57073;45.650;9.612;2022-10-19T08:57:25;99897.56;;;21.37;51.10
69796;BME280;57073;45.650;9.612;2022-10-19T08:59:53;99893.22;;;21.51;51.77
69796;BME280;57073;45.650;9.612;2022-10-19T09:02:19;99898.41;;;21.48;51.78
69796;BME280;57073;45.650;9.612;2022-10-19T09:06:45;99895.38;;;21.39;51.76
69796;BME280;57073;45.650;9.612;2022-10-19T09:08:52;99887.47;;;21.32;52.38
69796;BME280;57073;45.650;9.612;2022-10-19T09:10:53;99896.47;;;21.38;52.56
69796;BME280;57073;45.650;9.612;2022-10-19T09:13:00;99884.22;;;21.46;52.57
69796;BME280;57073;45.650;9.612;2022-10-19T09:15:05;99894.59;;;21.49;52.79
69796;BME280;57073;45.650;9.612;2022-10-19T09:17:11;99891.59;;;21.45;52.27
69796;BME280;57073;45.650;9.612;2022-10-19T09:19:24;99890.72;;;21.44;52.64
69796;BME280;57073;45.650;9.612;2022-10-19T09:21:39;99885.25;;;21.44;52.95
69796;BME280;57073;45.650;9.612;2022-10-19T09:23:49;99880.09;;;21.43;52.85
69796;BME280;57073;45.650;9.612;2022-10-19T09:25:55;99887.19;;;21.34;52.48
69796;BME280;57073;45.650;9.612;2022-10-19T09:28:16;99876.56;;;21.32;52.71
69796;BME280;57073;45.650;9.612;2022-10-19T09:30:22;99889.38;;;21.32;53.24
69796;BME280;57073;45.650;9.612;2022-10-19T09:32:30;99888.28;;;21.33;53.03
69796;BME280;57073;45.650;9.612;2022-10-19T09:34:38;99879.00;;;21.29;53.14
69796;BME280;57073;45.650;9.612;2022-10-19T09:36:43;99883.94;;;21.21;52.54
69796;BME280;57073;45.650;9.612;2022-10-19T09:38:44;99886.09;;;21.30;53.20
69796;BME280;57073;45.650;9.612;2022-10-19T09:40:45;99874.63;;;21.17;52.54
69796;BME280;57073;45.650;9.612;2022-10-19T09:42:46;99881.19;;;21.32;53.30
69796;BME280;57073;45.650;9.612;2022-10-19T09:44:51;99880.09;;;21.33;53.08
69796;BME280;57073;45.650;9.612;2022-10-19T09:49:14;99885.03;;;21.36;53.83
69796;BME280;57073;45.650;9.612;2022-10-19T09:51:15;99870.00;;;21.33;54.12
69796;BME280;57073;45.650;9.612;2022-10-19T09:53:18;99885.28;;;21.39;54.19
69796;BME280;57073;45.650;9.612;2022-10-19T09:55:35;99885.56;;;21.43;55.15
69796;BME280;57073;45.650;9.612;2022-10-19T09:57:44;99892.09;;;21.42;54.41
69796;BME280;57073;45.650;9.612;2022-10-19T09:59:50;99889.41;;;21.47;54.46
69796;BME280;57073;45.650;9.612;2022-10-19T10:04:15;99883.94;;;21.47;54.97
69796;BME280;57073;45.650;9.612;2022-10-19T10:06:16;99874.09;;;21.46;54.77
69796;BME280;57073;45.650;9.612;2022-10-19T10:08:20;99885.00;;;21.41;54.32
69796;BME280;57073;45.650;9.612;2022-10-19T10:10:30;99885.56;;;21.43;53.98
69796;BME280;57073;45.650;9.612;2022-10-19T10:12:34;99880.63;;;21.40;53.88
69796;BME280;57073;45.650;9.612;2022-10-19T10:14:35;99882.00;;;21.37;53.28
69796;BME280;57073;45.650;9.612;2022-10-19T10:16:38;99882.28;;;21.36;53.02
69796;BME280;57073;45.650;9.612;2022-10-19T10:19:03;99876.28;;;21.23;53.66
69796;BME280;57073;45.650;9.612;2022-10-19T10:21:13;99884.47;;;21.29;53.62
69796;BME280;57073;45.650;9.612;2022-10-19T10:23:23;99874.06;;;21.41;54.40
69796;BME280;57073;45.650;9.612;2022-10-19T10:25:27;99879.78;;;21.44;54.25
69796;BME280;57073;45.650;9.612;2022-10-19T10:27:33;99873.00;;;21.42;54.25
69796;BME280;57073;45.650;9.612;2022-10-19T10:29:36;99879.56;;;21.46;54.19
69796;BME280;57073;45.650;9.612;2022-10-19T10:31:36;99870.28;;;21.47;54.77
69796;BME280;57073;45.650;9.612;2022-10-19T10:33:37;99871.38;;;21.51;54.47
69796;BME280;57073;45.650;9.612;2022-10-19T10:35:37;99871.91;;;21.48;54.34
69796;BME280;57073;45.650;9.612;2022-10-19T10:37:45;99868.38;;;21.53;54.32
69796;BME280;57073;45.650;9.612;2022-10-19T10:39:50;99869.72;;;21.40;52.71
69796;BME280;57073;45.650;9.612;2022-10-19T10:41:52;99863.72;;;21.48;54.33
69796;BME280;57073;45.650;9.612;2022-10-19T10:43:59;99866.72;;;21.52;53.92
69796;BME280;57073;45.650;9.612;2022-10-19T10:46:12;99867.56;;;21.52;53.72
69796;BME280;57073;45.650;9.612;2022-10-19T10:50:25;99860.19;;;21.48;54.13
69796;BME280;57073;45.650;9.612;2022-10-19T10:52:30;99854.97;;;21.56;54.66
69796;BME280;57073;45.650;9.612;2022-10-19T10:54:31;99850.84;;;21.59;54.77
69796;BME280;57073;45.650;9.612;2022-10-19T10:56:31;99841.84;;;21.63;54.49
69796;BME280;57073;45.650;9.612;2022-10-19T10:58:43;99840.78;;;21.59;53.78
69796;BME280;57073;45.650;9.612;2022-10-19T11:00:48;99838.03;;;21.59;54.23
69796;BME280;57073;45.650;9.612;2022-10-19T11:04:54;99820.53;;;21.60;54.29
69796;BME280;57073;45.650;9.612;2022-10-19T11:07:00;99831.47;;;21.60;53.75
69796;BME280;57073;45.650;9.612;2022-10-19T11:09:11;99839.66;;;21.66;53.63
69796;BME280;57073;45.650;9.612;2022-10-19T11:11:21;99837.72;;;21.66;53.84
69796;BME280;57073;45.650;9.612;2022-10-19T11:13:29;99830.38;;;21.67;54.10
69796;BME280;57073;45.650;9.612;2022-10-19T11:15:38;99829.81;;;21.64;53.65
69796;BME280;57073;45.650;9.612;2022-10-19T11:18:11;99826.53;;;21.68;53.53
69796;BME280;57073;45.650;9.612;2022-10-19T11:20:15;99818.38;;;21.57;52.86
69796;BME280;57073;45.650;9.612;2022-10-19T11:22:33;99819.19;;;21.63;52.95
69796;BME280;57073;45.650;9.612;2022-10-19T11:27:32;99823.00;;;21.67;52.72
69796;BME280;57073;45.650;9.612;2022-10-19T11:31:50;99814.25;;;21.70;53.05
69796;BME280;57073;45.650;9.612;2022-10-19T11:34:01;99811.22;;;21.72;52.85
69796;BME280;57073;45.650;9.612;2022-10-19T11:38:48;99791.81;;;21.73;52.72
69796;BME280;57073;45.650;9.612;2022-10-19T11:43:40;99792.09;;;21.77;53.16